Time;durP1;ratioP1;P1;durP2;ratioP2;P2;SDS_P1;SDS_P2;PMS_P1;PMS_P2;Temp;Humidity;BMP_temperature;BMP_pressure;BME280_temperature;BME280_humidity;BME280_pressure;Samples;Min_cycle;Max_cycle;Signal;HPM_P1;HPM_P2
2024/03/21 00:02:14;;;;;;;;;;;13.90;84.40;;;;;;5104787;27;20080;-85
2024/03/21 00:04:39;;;;;;;;;;;13.90;84.50;;;;;;5103555;27;20000;-84
2024/03/21 00:07:05;;;;;;;;;;;14.00;84.10;;;;;;5102987;27;20025;-84
2024/03/21 00:09:33;;;;;;;;;;;14.00;83.90;;;;;;5104051;27;20553;-85
2024/03/21 00:11:59;;;;;;;;;;;13.90;84.00;;;;;;5102603;27;19992;-85
2024/03/21 00:14:25;;;;;;;;;;;13.90;84.40;;;;;;5106740;27;20659;-84
2024/03/21 00:16:51;;;;;;;;;;;13.70;85.10;;;;;;5088138;28;19996;-83
2024/03/21 00:19:18;;;;;;;;;;;13.50;86.20;;;;;;5106751;27;19989;-84
2024/03/21 00:21:45;;;;;;;;;;;13.60;86.00;;;;;;5102624;27;20565;-85
2024/03/21 00:24:11;;;;;;;;;;;13.60;86.00;;;;;;5107116;27;19989;-83
2024/03/21 00:26:37;;;;;;;;;;;13.50;86.70;;;;;;5105847;28;20046;-83
2024/03/21 00:29:04;;;;;;;;;;;13.30;87.70;;;;;;5104631;27;20514;-84
2024/03/21 00:31:31;;;;;;;;;;;13.20;88.10;;;;;;5104372;28;19993;-83
2024/03/21 00:33:56;;;;;;;;;;;13.30;87.90;;;;;;5102379;28;20745;-83
2024/03/21 00:36:22;;;;;;;;;;;13.30;87.60;;;;;;5107370;28;19993;-83
2024/03/21 00:38:47;;;;;;;;;;;13.30;87.20;;;;;;5085839;28;19996;-83
2024/03/21 00:41:13;;;;;;;;;;;13.30;87.20;;;;;;5102701;28;20000;-83
2024/03/21 00:43:38;;;;;;;;;;;13.30;87.00;;;;;;5101863;28;20062;-84
2024/03/21 00:46:04;;;;;;;;;;;13.20;88.00;;;;;;5089624;28;20404;-84
2024/03/21 00:48:29;;;;;;;;;;;13.20;87.00;;;;;;5102351;28;20487;-84
2024/03/21 00:50:55;;;;;;;;;;;13.20;86.90;;;;;;5101216;28;20043;-83
2024/03/21 00:53:20;;;;;;;;;;;13.30;86.10;;;;;;5106202;28;20003;-83
2024/03/21 00:55:46;;;;;;;;;;;13.30;86.10;;;;;;5106884;27;20012;-83
2024/03/21 00:58:11;;;;;;;;;;;13.30;85.80;;;;;;5102998;27;20168;-83
2024/03/21 01:00:37;;;;;;;;;;;13.30;85.40;;;;;;5114777;27;20028;-83
2024/03/21 01:03:03;;;;;;;;;;;13.40;85.60;;;;;;5108494;27;20085;-84
2024/03/21 01:05:29;;;;;;;;;;;13.40;85.20;;;;;;5107371;27;20016;-84
2024/03/21 01:07:54;;;;;;;;;;;13.30;85.20;;;;;;5103684;27;20527;-84
2024/03/21 01:10:20;;;;;;;;;;;13.20;85.50;;;;;;5103020;27;20012;-83
2024/03/21 01:12:45;;;;;;;;;;;13.20;85.60;;;;;;5109757;27;19996;-84
2024/03/21 01:15:11;;;;;;;;;;;13.10;85.70;;;;;;5109962;27;20836;-83
2024/03/21 01:17:37;;;;;;;;;;;13.10;85.80;;;;;;5106607;27;19988;-83
2024/03/21 01:20:03;;;;;;;;;;;13.10;85.80;;;;;;5109620;27;20015;-84
2024/03/21 01:22:29;;;;;;;;;;;13.10;85.60;;;;;;5106885;27;20455;-84
2024/03/21 01:24:55;;;;;;;;;;;13.00;85.70;;;;;;5106186;28;19988;-84
2024/03/21 01:27:20;;;;;;;;;;;12.90;86.10;;;;;;5106061;27;20363;-81
2024/03/21 01:29:46;;;;;;;;;;;12.80;86.10;;;;;;5084264;28;20479;-81
2024/03/21 01:32:12;;;;;;;;;;;12.80;86.90;;;;;;5105259;27;19996;-81
2024/03/21 01:34:37;;;;;;;;;;;12.70;86.50;;;;;;5102028;28;19993;-83
2024/03/21 01:37:03;;;;;;;;;;;12.70;87.10;;;;;;5103322;27;19988;-82
2024/03/21 01:39:28;;;;;;;;;;;12.60;87.90;;;;;;5106064;27;20471;-82
2024/03/21 01:41:54;;;;;;;;;;;12.50;88.50;;;;;;5089271;28;19988;-82
2024/03/21 01:44:20;;;;;;;;;;;12.50;88.90;;;;;;5104733;28;20488;-81
2024/03/21 01:46:48;;;;;;;;;;;12.50;88.80;;;;;;5101796;28;19993;-83
2024/03/21 01:49:14;;;;;;;;;;;12.50;88.50;;;;;;5106524;27;20012;-84
2024/03/21 01:51:41;;;;;;;;;;;12.60;88.10;;;;;;5104954;27;19995;-83
2024/03/21 01:54:08;;;;;;;;;;;12.60;87.10;;;;;;5099675;28;19989;-83
2024/03/21 01:56:37;;;;;;;;;;;12.60;86.90;;;;;;5090112;27;20606;-85
2024/03/21 01:59:09;;;;;;;;;;;12.60;86.80;;;;;;5084900;28;19989;-83
2024/03/21 02:01:36;;;;;;;;;;;12.60;86.90;;;;;;5108306;27;19996;-83
2024/03/21 02:04:03;;;;;;;;;;;12.50;87.10;;;;;;5106457;27;19996;-82
2024/03/21 02:06:31;;;;;;;;;;;12.60;86.60;;;;;;5106506;27;20016;-83
2024/03/21 02:08:58;;;;;;;;;;;12.50;86.60;;;;;;5100740;27;20024;-83
2024/03/21 02:11:24;;;;;;;;;;;12.40;87.50;;;;;;5090726;28;20395;-82
2024/03/21 02:13:52;;;;;;;;;;;12.40;87.90;;;;;;5100349;28;19995;-81
2024/03/21 02:16:18;;;;;;;;;;;12.40;87.90;;;;;;5106331;27;19993;-81
2024/03/21 02:18:44;;;;;;;;;;;12.40;87.90;;;;;;5104973;28;20356;-81
2024/03/21 02:23:54;;;;;;;;;;;12.40;87.20;;;;;;5104437;28;20151;-80
2024/03/21 02:26:20;;;;;;;;;;;12.30;87.40;;;;;;5105799;27;19984;-80
2024/03/21 02:28:47;;;;;;;;;;;12.30;87.50;;;;;;5104195;28;20012;-81
2024/03/21 02:31:13;;;;;;;;;;;12.30;87.30;;;;;;5107601;27;19993;-83
2024/03/21 02:33:38;;;;;;;;;;;12.30;87.80;;;;;;5084336;27;20013;-81
2024/03/21 02:36:04;;;;;;;;;;;12.30;88.00;;;;;;5101388;27;20668;-83
2024/03/21 02:38:30;;;;;;;;;;;12.30;87.90;;;;;;5106354;27;19992;-81
2024/03/21 02:40:55;;;;;;;;;;;12.10;88.80;;;;;;5105357;27;19999;-81
2024/03/21 02:43:21;;;;;;;;;;;11.90;90.10;;;;;;5102284;28;19989;-81
2024/03/21 02:45:47;;;;;;;;;;;11.80;90.60;;;;;;5103234;27;20046;-82
2024/03/21 02:48:13;;;;;;;;;;;11.80;90.80;;;;;;5100354;28;20025;-81
2024/03/21 02:50:38;;;;;;;;;;;11.70;91.20;;;;;;5115864;27;20877;-82
2024/03/21 02:53:04;;;;;;;;;;;11.80;91.70;;;;;;5107623;27;20039;-83
2024/03/21 02:55:30;;;;;;;;;;;11.80;91.80;;;;;;5105505;27;20079;-81
2024/03/21 02:57:55;;;;;;;;;;;11.80;92.00;;;;;;5100222;27;20425;-81
2024/03/21 03:00:21;;;;;;;;;;;11.80;91.90;;;;;;5082765;28;19997;-81
2024/03/21 03:02:48;;;;;;;;;;;11.70;92.20;;;;;;5100037;28;19989;-81
2024/03/21 03:05:14;;;;;;;;;;;11.60;92.30;;;;;;5101275;28;20022;-84
2024/03/21 03:07:40;;;;;;;;;;;11.70;92.30;;;;;;5105537;27;20520;-82
2024/03/21 03:10:05;;;;;;;;;;;11.70;92.40;;;;;;5104971;28;20019;-81
2024/03/21 03:12:31;;;;;;;;;;;11.60;92.40;;;;;;5097059;27;20455;-81
2024/03/21 03:14:57;;;;;;;;;;;11.50;92.60;;;;;;5109491;27;20039;-80
2024/03/21 03:17:22;;;;;;;;;;;11.50;92.70;;;;;;5104009;27;20454;-80
2024/03/21 03:19:48;;;;;;;;;;;11.50;92.80;;;;;;5104076;28;19992;-81
2024/03/21 03:22:13;;;;;;;;;;;11.50;92.90;;;;;;5104049;28;19988;-82
2024/03/21 03:24:39;;;;;;;;;;;11.50;92.90;;;;;;5105242;27;20538;-82
2024/03/21 03:27:04;;;;;;;;;;;11.50;93.00;;;;;;5108280;27;20531;-83
2024/03/21 03:29:30;;;;;;;;;;;11.60;92.70;;;;;;5108699;27;20539;-78
2024/03/21 03:32:01;;;;;;;;;;;11.50;92.70;;;;;;5104030;28;20009;-79
2024/03/21 03:37:11;;;;;;;;;;;11.50;92.90;;;;;;5101335;28;20023;-78
2024/03/21 03:39:37;;;;;;;;;;;11.40;93.10;;;;;;5106783;27;20741;-78
2024/03/21 03:42:02;;;;;;;;;;;11.50;93.20;;;;;;5084689;28;19993;-79
2024/03/21 03:44:28;;;;;;;;;;;11.40;93.20;;;;;;5102598;28;20818;-79
2024/03/21 03:46:54;;;;;;;;;;;11.40;93.40;;;;;;5080712;28;19995;-78
2024/03/21 03:49:19;;;;;;;;;;;11.40;93.70;;;;;;5103332;28;20061;-79
2024/03/21 03:51:45;;;;;;;;;;;11.30;94.00;;;;;;5105428;27;20028;-80
2024/03/21 03:54:10;;;;;;;;;;;11.20;94.30;;;;;;5103881;28;20083;-80
2024/03/21 03:56:36;;;;;;;;;;;11.20;94.60;;;;;;5085163;28;19999;-80
2024/03/21 03:59:01;;;;;;;;;;;11.10;94.70;;;;;;5103411;28;20079;-80
2024/03/21 04:01:27;;;;;;;;;;;11.10;94.80;;;;;;5103276;28;20062;-81
2024/03/21 04:03:52;;;;;;;;;;;11.10;94.90;;;;;;5103333;28;20448;-81
2024/03/21 04:06:18;;;;;;;;;;;11.10;95.00;;;;;;5102096;28;20501;-80
2024/03/21 04:08:44;;;;;;;;;;;11.00;95.40;;;;;;5102858;28;20012;-80
2024/03/21 04:11:13;;;;;;;;;;;11.00;95.70;;;;;;5103365;28;20038;-80
2024/03/21 04:13:39;;;;;;;;;;;11.00;96.00;;;;;;5094523;28;19988;-80
2024/03/21 04:16:05;;;;;;;;;;;11.00;96.00;;;;;;5103450;28;19999;-80
2024/03/21 04:18:30;;;;;;;;;;;11.10;95.90;;;;;;5102471;28;19993;-80
2024/03/21 04:20:56;;;;;;;;;;;11.10;96.00;;;;;;5103501;28;19993;-80
2024/03/21 04:23:22;;;;;;;;;;;11.10;96.10;;;;;;5103186;28;19992;-81
2024/03/21 04:25:48;;;;;;;;;;;11.00;96.30;;;;;;5103233;28;19997;-81
2024/03/21 04:28:14;;;;;;;;;;;11.00;96.40;;;;;;5086518;28;20352;-81
2024/03/21 04:30:39;;;;;;;;;;;11.10;96.40;;;;;;5103262;28;20524;-81
2024/03/21 04:33:05;;;;;;;;;;;11.10;96.40;;;;;;5102838;28;19996;-81
2024/03/21 04:35:30;;;;;;;;;;;11.00;96.60;;;;;;5103450;28;19995;-81
2024/03/21 04:37:56;;;;;;;;;;;10.90;96.80;;;;;;5087206;28;19988;-81
2024/03/21 04:40:22;;;;;;;;;;;11.00;97.00;;;;;;5103179;28;20768;-80
2024/03/21 04:42:50;;;;;;;;;;;10.90;97.00;;;;;;5106884;28;19995;-80
2024/03/21 04:45:17;;;;;;;;;;;10.90;97.40;;;;;;5103065;28;20669;-80
2024/03/21 04:47:42;;;;;;;;;;;10.80;97.60;;;;;;5087153;28;20375;-80
2024/03/21 04:50:08;;;;;;;;;;;10.70;97.70;;;;;;5084437;28;20012;-80
2024/03/21 04:52:33;;;;;;;;;;;10.70;97.90;;;;;;5104874;28;19992;-80
2024/03/21 04:54:59;;;;;;;;;;;10.80;98.00;;;;;;5110198;28;20494;-80
2024/03/21 04:57:24;;;;;;;;;;;10.70;98.00;;;;;;5101549;28;19989;-81
2024/03/21 04:59:52;;;;;;;;;;;10.80;97.90;;;;;;5105298;28;19985;-80
2024/03/21 05:02:18;;;;;;;;;;;10.80;97.60;;;;;;5102217;28;20084;-80
2024/03/21 05:04:43;;;;;;;;;;;10.90;97.40;;;;;;5102640;28;19989;-82
2024/03/21 05:07:09;;;;;;;;;;;10.90;97.30;;;;;;5109170;28;20025;-81
2024/03/21 05:09:35;;;;;;;;;;;10.90;97.10;;;;;;5100567;28;20814;-81
2024/03/21 05:12:00;;;;;;;;;;;11.00;97.10;;;;;;5102925;28;19989;-80
2024/03/21 05:14:28;;;;;;;;;;;11.00;97.00;;;;;;5102800;28;20026;-80
2024/03/21 05:16:53;;;;;;;;;;;10.90;97.20;;;;;;5102579;28;19989;-80
2024/03/21 05:19:19;;;;;;;;;;;10.80;97.40;;;;;;5102189;28;19999;-79
2024/03/21 05:21:44;;;;;;;;;;;10.80;97.60;;;;;;5102996;28;20041;-80
2024/03/21 05:24:10;;;;;;;;;;;10.70;97.80;;;;;;5102722;28;20016;-79
2024/03/21 05:26:36;;;;;;;;;;;10.70;98.00;;;;;;5102170;28;20087;-80
2024/03/21 05:29:02;;;;;;;;;;;10.70;98.10;;;;;;5105742;28;20048;-79
2024/03/21 05:31:27;;;;;;;;;;;10.60;98.30;;;;;;5102742;28;20075;-80
2024/03/21 05:33:54;;;;;;;;;;;10.60;98.40;;;;;;5102446;28;19996;-79
2024/03/21 05:36:19;;;;;;;;;;;10.50;98.50;;;;;;5102764;28;20673;-80
2024/03/21 05:38:45;;;;;;;;;;;10.50;98.70;;;;;;5103971;28;19993;-80
2024/03/21 05:41:11;;;;;;;;;;;10.40;98.80;;;;;;5106190;28;20041;-81
2024/03/21 05:43:37;;;;;;;;;;;10.40;99.20;;;;;;5106226;27;20584;-78
2024/03/21 05:46:03;;;;;;;;;;;10.40;99.10;;;;;;5104440;28;19989;-79
2024/03/21 05:48:28;;;;;;;;;;;10.50;98.90;;;;;;5097668;28;20008;-79
2024/03/21 05:50:54;;;;;;;;;;;10.50;98.60;;;;;;5105611;28;20088;-79
2024/03/21 05:53:19;;;;;;;;;;;10.60;98.40;;;;;;5113033;27;20367;-78
2024/03/21 05:56:01;;;;;;;;;;;10.70;98.10;;;;;;5110244;27;20050;-78
2024/03/21 05:58:26;;;;;;;;;;;10.60;98.10;;;;;;5113872;27;20000;-78
2024/03/21 06:00:55;;;;;;;;;;;10.40;98.80;;;;;;5114149;27;20427;-78
2024/03/21 06:03:21;;;;;;;;;;;10.40;99.10;;;;;;5114293;27;20082;-77
2024/03/21 06:05:47;;;;;;;;;;;10.30;99.30;;;;;;5105011;27;20056;-78
2024/03/21 06:08:12;;;;;;;;;;;10.40;99.20;;;;;;5107739;27;19992;-78
2024/03/21 06:10:38;;;;;;;;;;;10.50;98.90;;;;;;5110932;27;20000;-78
2024/03/21 06:13:03;;;;;;;;;;;10.60;98.40;;;;;;5105955;28;20115;-79
2024/03/21 06:15:30;;;;;;;;;;;10.70;98.10;;;;;;5087297;28;20562;-78
2024/03/21 06:17:55;;;;;;;;;;;10.90;97.60;;;;;;5099830;28;19985;-78
2024/03/21 06:20:21;;;;;;;;;;;11.00;97.30;;;;;;5112281;27;19997;-79
2024/03/21 06:22:47;;;;;;;;;;;11.10;97.10;;;;;;5110968;27;19995;-79
2024/03/21 06:25:13;;;;;;;;;;;11.40;96.20;;;;;;5110596;27;19992;-78
2024/03/21 06:27:39;;;;;;;;;;;11.50;95.80;;;;;;5106757;27;20016;-79
2024/03/21 06:30:05;;;;;;;;;;;11.60;95.50;;;;;;5105524;27;20050;-80
2024/03/21 06:32:31;;;;;;;;;;;11.90;94.80;;;;;;5105120;28;20429;-78
2024/03/21 06:34:56;;;;;;;;;;;12.00;94.40;;;;;;5114446;27;19988;-78
2024/03/21 06:37:22;;;;;;;;;;;12.00;94.20;;;;;;5109693;27;19997;-77
2024/03/21 06:39:47;;;;;;;;;;;12.20;94.10;;;;;;5105583;28;19988;-76
2024/03/21 06:42:13;;;;;;;;;;;12.50;93.40;;;;;;5101325;28;19995;-78
2024/03/21 06:44:39;;;;;;;;;;;12.80;92.90;;;;;;5104347;27;20032;-78
2024/03/21 06:47:05;;;;;;;;;;;13.00;92.50;;;;;;5097125;28;19989;-78
2024/03/21 06:49:30;;;;;;;;;;;13.40;91.60;;;;;;5104675;28;20012;-77
2024/03/21 06:51:56;;;;;;;;;;;13.80;91.30;;;;;;5114667;27;19999;-77
2024/03/21 06:54:21;;;;;;;;;;;14.10;90.50;;;;;;5106057;27;20106;-78
2024/03/21 06:56:47;;;;;;;;;;;14.40;90.00;;;;;;5105487;27;20114;-77
2024/03/21 06:59:13;;;;;;;;;;;14.70;88.70;;;;;;5089939;28;19989;-76
2024/03/21 07:01:38;;;;;;;;;;;14.70;88.20;;;;;;5106487;27;19989;-77
2024/03/21 07:04:07;;;;;;;;;;;15.30;86.90;;;;;;5106873;27;20442;-76
2024/03/21 07:06:33;;;;;;;;;;;15.70;85.30;;;;;;5108028;27;20020;-76
2024/03/21 07:08:59;;;;;;;;;;;15.70;84.50;;;;;;5102423;27;20016;-72
2024/03/21 07:11:24;;;;;;;;;;;15.70;84.50;;;;;;5106325;27;20491;-72
2024/03/21 07:13:50;;;;;;;;;;;15.40;86.60;;;;;;5105904;27;20000;-71
2024/03/21 07:16:16;;;;;;;;;;;15.50;85.80;;;;;;5107206;27;19989;-73
2024/03/21 07:18:42;;;;;;;;;;;15.70;85.10;;;;;;5104117;27;20000;-72
2024/03/21 07:21:07;;;;;;;;;;;15.50;87.20;;;;;;5106540;27;20409;-72
2024/03/21 07:23:33;;;;;;;;;;;16.00;86.20;;;;;;5106491;27;20008;-76
2024/03/21 07:25:59;;;;;;;;;;;16.60;83.10;;;;;;5099142;27;19993;-77
2024/03/21 07:28:24;;;;;;;;;;;16.90;81.80;;;;;;5083509;27;20340;-77
2024/03/21 07:30:53;;;;;;;;;;;17.10;79.80;;;;;;5089398;27;20036;-77
2024/03/21 07:33:19;;;;;;;;;;;17.00;79.70;;;;;;5102703;27;19988;-77
2024/03/21 07:35:52;;;;;;;;;;;17.10;79.20;;;;;;5087850;28;20653;-77
2024/03/21 07:38:17;;;;;;;;;;;17.20;79.40;;;;;;5084769;28;19993;-77
2024/03/21 07:40:43;;;;;;;;;;;17.40;78.20;;;;;;5088282;27;20045;-77
2024/03/21 07:43:08;;;;;;;;;;;17.10;80.10;;;;;;5096460;27;20104;-76
2024/03/21 07:45:34;;;;;;;;;;;17.10;79.80;;;;;;5093596;28;20034;-77
2024/03/21 07:47:59;;;;;;;;;;;15.70;83.10;;;;;;5087878;28;20121;-77
2024/03/21 07:50:25;;;;;;;;;;;15.70;83.90;;;;;;5101734;27;20562;-76
2024/03/21 07:52:51;;;;;;;;;;;17.10;79.30;;;;;;5091881;27;19989;-76
2024/03/21 07:55:16;;;;;;;;;;;16.50;79.70;;;;;;5083648;27;20000;-77
2024/03/21 07:57:42;;;;;;;;;;;15.60;81.10;;;;;;5096333;27;19993;-77
2024/03/21 08:00:08;;;;;;;;;;;15.20;82.70;;;;;;5095246;27;20041;-76
2024/03/21 08:02:33;;;;;;;;;;;15.10;83.20;;;;;;5095042;28;19989;-76
2024/03/21 08:04:59;;;;;;;;;;;15.30;83.20;;;;;;5102833;27;19994;-77
2024/03/21 08:07:24;;;;;;;;;;;15.70;83.70;;;;;;5071901;28;19993;-77
2024/03/21 08:09:50;;;;;;;;;;;15.70;82.80;;;;;;5097790;27;20489;-77
2024/03/21 08:12:15;;;;;;;;;;;15.80;82.80;;;;;;5092422;28;19996;-77
2024/03/21 08:14:41;;;;;;;;;;;15.70;82.80;;;;;;5103743;28;20092;-77
2024/03/21 08:17:06;;;;;;;;;;;15.70;83.70;;;;;;5097979;28;20071;-77
2024/03/21 08:19:33;;;;;;;;;;;15.60;84.00;;;;;;5103611;28;20024;-76
2024/03/21 08:21:58;;;;;;;;;;;15.70;85.00;;;;;;5102797;27;19992;-76
2024/03/21 08:24:26;;;;;;;;;;;15.40;84.30;;;;;;5101151;28;19992;-78
2024/03/21 08:26:51;;;;;;;;;;;15.30;85.90;;;;;;5103098;28;20003;-76
2024/03/21 08:29:17;;;;;;;;;;;15.00;85.60;;;;;;5103113;28;20009;-77
2024/03/21 08:31:42;;;;;;;;;;;14.80;87.30;;;;;;5097227;28;19989;-77
2024/03/21 08:34:08;;;;;;;;;;;14.80;87.50;;;;;;5097754;28;19992;-75
2024/03/21 08:36:34;;;;;;;;;;;15.00;87.50;;;;;;5103121;28;20035;-76
2024/03/21 08:39:00;;;;;;;;;;;15.10;86.10;;;;;;5102756;28;20032;-77
2024/03/21 08:41:26;;;;;;;;;;;15.40;85.80;;;;;;5084076;28;20108;-76
2024/03/21 08:43:52;;;;;;;;;;;15.60;85.70;;;;;;5101021;28;19988;-76
2024/03/21 08:46:17;;;;;;;;;;;15.80;84.60;;;;;;5095144;28;20463;-77
2024/03/21 08:48:43;;;;;;;;;;;16.00;85.30;;;;;;5101747;28;20008;-77
2024/03/21 08:51:08;;;;;;;;;;;16.20;84.80;;;;;;5100589;28;19989;-76
2024/03/21 08:53:37;;;;;;;;;;;16.10;86.20;;;;;;5104051;28;19995;-77
2024/03/21 08:56:03;;;;;;;;;;;16.00;86.00;;;;;;5095829;28;20464;-77
2024/03/21 08:58:29;;;;;;;;;;;16.20;85.10;;;;;;5102363;28;19996;-77
2024/03/21 09:00:54;;;;;;;;;;;16.70;83.80;;;;;;5101955;28;19989;-77
2024/03/21 09:03:20;;;;;;;;;;;16.90;83.00;;;;;;5102560;28;19992;-76
2024/03/21 09:05:45;;;;;;;;;;;16.90;83.10;;;;;;5102293;28;20119;-76
2024/03/21 09:08:11;;;;;;;;;;;16.80;83.00;;;;;;5102483;28;20196;-76
2024/03/21 09:10:36;;;;;;;;;;;18.70;78.70;;;;;;5102426;28;20048;-76
2024/03/21 09:13:02;;;;;;;;;;;17.70;78.60;;;;;;5102721;28;19996;-76
2024/03/21 09:15:28;;;;;;;;;;;18.50;78.20;;;;;;5106751;28;19988;-77
2024/03/21 09:17:53;;;;;;;;;;;18.00;76.60;;;;;;5105783;28;19988;-76
2024/03/21 09:20:19;;;;;;;;;;;18.30;76.60;;;;;;5087961;28;20000;-76
2024/03/21 09:22:45;;;;;;;;;;;18.40;74.00;;;;;;5106157;28;19996;-77
2024/03/21 09:25:10;;;;;;;;;;;17.80;76.70;;;;;;5105427;28;19989;-77
2024/03/21 09:27:36;;;;;;;;;;;17.80;76.90;;;;;;5106444;28;19995;-76
2024/03/21 09:30:02;;;;;;;;;;;18.10;75.40;;;;;;5102128;28;20104;-76
2024/03/21 09:32:27;;;;;;;;;;;19.60;71.60;;;;;;5108333;27;19993;-76
2024/03/21 09:34:53;;;;;;;;;;;18.50;72.30;;;;;;5106275;28;20022;-76
2024/03/21 09:37:19;;;;;;;;;;;17.90;74.30;;;;;;5110889;27;19996;-76
2024/03/21 09:39:45;;;;;;;;;;;17.70;74.10;;;;;;5105321;28;19993;-77
2024/03/21 09:42:16;;;;;;;;;;;17.70;73.90;;;;;;5105798;28;19989;-76
2024/03/21 09:44:45;;;;;;;;;;;17.80;74.70;;;;;;5103221;27;20038;-76
2024/03/21 09:47:11;;;;;;;;;;;17.70;73.80;;;;;;5106034;28;19992;-78
2024/03/21 09:49:37;;;;;;;;;;;17.80;73.30;;;;;;5102122;28;20008;-77
2024/03/21 09:52:02;;;;;;;;;;;17.90;73.70;;;;;;5103621;27;20695;-77
2024/03/21 09:54:30;;;;;;;;;;;18.80;72.40;;;;;;5105766;28;20018;-77
2024/03/21 09:56:56;;;;;;;;;;;20.10;71.40;;;;;;5105086;28;19996;-76
2024/03/21 09:59:21;;;;;;;;;;;21.90;63.80;;;;;;5105587;28;20027;-76
2024/03/21 10:01:47;;;;;;;;;;;21.80;60.30;;;;;;5105349;28;20899;-77
2024/03/21 10:04:12;;;;;;;;;;;20.30;61.20;;;;;;5086754;28;20424;-76
2024/03/21 10:06:44;;;;;;;;;;;19.70;64.20;;;;;;5105254;28;20114;-76
2024/03/21 10:09:09;;;;;;;;;;;20.50;66.90;;;;;;5099865;28;20019;-77
2024/03/21 10:11:35;;;;;;;;;;;20.60;68.20;;;;;;5110451;27;19988;-76
2024/03/21 10:14:01;;;;;;;;;;;20.40;67.80;;;;;;5110044;27;20079;-77
2024/03/21 10:16:28;;;;;;;;;;;19.70;67.40;;;;;;5105339;28;19989;-77
2024/03/21 10:18:54;;;;;;;;;;;19.00;67.90;;;;;;5105103;28;20096;-78
2024/03/21 10:21:22;;;;;;;;;;;18.90;69.50;;;;;;5109438;27;19992;-76
2024/03/21 10:23:48;;;;;;;;;;;18.90;71.00;;;;;;5104770;28;20014;-77
2024/03/21 10:26:14;;;;;;;;;;;19.30;73.40;;;;;;5102801;28;19988;-76
2024/03/21 10:28:40;;;;;;;;;;;19.80;71.40;;;;;;5104910;28;19999;-77
2024/03/21 10:31:10;;;;;;;;;;;20.00;72.10;;;;;;5105507;28;20694;-76
2024/03/21 10:33:37;;;;;;;;;;;20.10;71.50;;;;;;5099547;28;19984;-76
2024/03/21 10:36:03;;;;;;;;;;;20.00;73.50;;;;;;5105150;28;19995;-76
2024/03/21 10:38:29;;;;;;;;;;;19.90;72.40;;;;;;5108649;27;19996;-77
2024/03/21 10:40:56;;;;;;;;;;;19.90;72.40;;;;;;5108629;27;20100;-79
2024/03/21 10:43:22;;;;;;;;;;;19.40;76.20;;;;;;5106040;27;19994;-77
2024/03/21 10:45:48;;;;;;;;;;;19.30;78.20;;;;;;5094333;28;19989;-77
2024/03/21 10:48:30;;;;;;;;;;;19.20;75.90;;;;;;5104080;28;19999;-80
2024/03/21 10:50:56;;;;;;;;;;;19.30;71.80;;;;;;5087610;27;20520;-71
2024/03/21 10:53:22;;;;;;;;;;;19.10;72.50;;;;;;5111362;27;19992;-70
2024/03/21 10:55:51;;;;;;;;;;;18.90;74.10;;;;;;5107765;27;19993;-70
2024/03/21 10:58:18;;;;;;;;;;;18.90;74.50;;;;;;5094740;27;20042;-70
2024/03/21 11:00:50;;;;;;;;;;;19.00;75.20;;;;;;5104783;27;19989;-71
2024/03/21 11:03:16;;;;;;;;;;;18.90;74.70;;;;;;5099051;27;20487;-71
2024/03/21 11:05:42;;;;;;;;;;;19.00;76.40;;;;;;5109306;27;20021;-71
2024/03/21 11:08:26;;;;;;;;;;;19.00;75.40;;;;;;5109611;27;20000;-72
2024/03/21 11:10:52;;;;;;;;;;;18.90;75.50;;;;;;5101352;27;20090;-77
2024/03/21 11:13:18;;;;;;;;;;;19.10;80.80;;;;;;5079956;28;20075;-78
2024/03/21 11:15:44;;;;;;;;;;;19.00;75.80;;;;;;5095603;27;19995;-79
2024/03/21 11:18:10;;;;;;;;;;;19.30;75.60;;;;;;5109599;27;20045;-80
2024/03/21 11:20:35;;;;;;;;;;;19.30;77.10;;;;;;5116633;27;20076;-78
2024/03/21 11:23:01;;;;;;;;;;;19.20;77.70;;;;;;5094154;28;19989;-81
2024/03/21 11:25:26;;;;;;;;;;;19.20;80.80;;;;;;5103168;27;20032;-78
2024/03/21 11:27:53;;;;;;;;;;;19.30;76.90;;;;;;5099045;27;20004;-79
2024/03/21 11:30:18;;;;;;;;;;;19.10;77.00;;;;;;5104734;27;20020;-78
2024/03/21 11:32:44;;;;;;;;;;;19.20;75.10;;;;;;5098165;28;19993;-78
2024/03/21 11:35:10;;;;;;;;;;;19.40;80.20;;;;;;5111616;27;19992;-78
2024/03/21 11:37:36;;;;;;;;;;;19.30;76.50;;;;;;5105165;27;19989;-78
2024/03/21 11:40:01;;;;;;;;;;;19.20;78.40;;;;;;5093595;28;19993;-78
2024/03/21 11:42:27;;;;;;;;;;;19.10;77.20;;;;;;5091294;27;19999;-78
2024/03/21 11:44:53;;;;;;;;;;;19.00;75.00;;;;;;5112673;27;20041;-77
2024/03/21 11:47:18;;;;;;;;;;;18.70;73.70;;;;;;5092098;27;19989;-77
2024/03/21 11:49:50;;;;;;;;;;;18.60;73.10;;;;;;5091306;27;20736;-77
2024/03/21 11:52:17;;;;;;;;;;;18.60;72.80;;;;;;5103487;27;19995;-79
2024/03/21 11:54:42;;;;;;;;;;;18.90;76.30;;;;;;5100451;28;20000;-79
2024/03/21 11:57:10;;;;;;;;;;;19.00;81.00;;;;;;5098129;27;19993;-78
2024/03/21 11:59:38;;;;;;;;;;;18.90;77.50;;;;;;5102590;27;20031;-77
2024/03/21 12:02:08;;;;;;;;;;;18.80;75.10;;;;;;5102980;27;19999;-78
2024/03/21 12:04:34;;;;;;;;;;;19.00;78.80;;;;;;5094686;27;20778;-77
2024/03/21 12:06:59;;;;;;;;;;;19.00;81.30;;;;;;5106682;27;20126;-78
2024/03/21 12:09:25;;;;;;;;;;;19.00;79.60;;;;;;5102293;27;20021;-81
2024/03/21 12:11:50;;;;;;;;;;;19.10;81.10;;;;;;5085811;28;20050;-78
2024/03/21 12:14:16;;;;;;;;;;;19.10;81.20;;;;;;5104547;27;20023;-79
2024/03/21 12:16:42;;;;;;;;;;;19.00;79.60;;;;;;5086329;28;20432;-79
2024/03/21 12:19:08;;;;;;;;;;;19.00;79.30;;;;;;5083534;28;20450;-79
2024/03/21 12:21:34;;;;;;;;;;;19.10;78.40;;;;;;5102340;27;19996;-79
2024/03/21 12:23:59;;;;;;;;;;;19.10;79.50;;;;;;5103231;28;20065;-78
2024/03/21 12:26:26;;;;;;;;;;;19.10;78.90;;;;;;5109697;27;19992;-80
2024/03/21 12:28:52;;;;;;;;;;;19.00;78.90;;;;;;5105211;27;20012;-78
2024/03/21 12:31:17;;;;;;;;;;;19.00;79.20;;;;;;5106274;27;19988;-78
2024/03/21 12:33:44;;;;;;;;;;;19.00;79.00;;;;;;5102914;28;20013;-79
2024/03/21 12:36:10;;;;;;;;;;;19.10;80.40;;;;;;5097724;28;19993;-79
2024/03/21 12:38:36;;;;;;;;;;;19.10;83.50;;;;;;5077373;28;20587;-77
2024/03/21 12:41:02;;;;;;;;;;;19.10;84.00;;;;;;5102426;28;20014;-78
2024/03/21 12:43:28;;;;;;;;;;;19.10;82.50;;;;;;5098846;28;19988;-79
2024/03/21 12:45:55;;;;;;;;;;;19.00;82.20;;;;;;5099946;28;20023;-78
2024/03/21 12:48:22;;;;;;;;;;;19.00;80.20;;;;;;5107840;27;20028;-79
2024/03/21 12:50:48;;;;;;;;;;;19.00;81.60;;;;;;5110894;27;20015;-79
2024/03/21 12:53:17;;;;;;;;;;;19.00;81.70;;;;;;5105968;27;20178;-79
2024/03/21 12:55:43;;;;;;;;;;;19.00;80.00;;;;;;5105551;27;19992;-79
2024/03/21 12:58:09;;;;;;;;;;;19.00;81.00;;;;;;5114571;27;19999;-78
2024/03/21 13:00:35;;;;;;;;;;;19.00;79.40;;;;;;5105639;27;19992;-81
2024/03/21 13:03:01;;;;;;;;;;;18.90;81.30;;;;;;5112079;27;19989;-79
2024/03/21 13:05:26;;;;;;;;;;;19.00;82.10;;;;;;5087620;27;20028;-78
2024/03/21 13:07:52;;;;;;;;;;;19.10;82.90;;;;;;5094831;27;19997;-77
2024/03/21 13:10:18;;;;;;;;;;;19.00;80.30;;;;;;5095156;28;20016;-78
2024/03/21 13:12:43;;;;;;;;;;;19.00;81.60;;;;;;5096661;27;19995;-77
2024/03/21 13:15:09;;;;;;;;;;;19.20;83.50;;;;;;5088433;28;20722;-77
2024/03/21 13:17:34;;;;;;;;;;;19.10;78.90;;;;;;5096277;27;20747;-78
2024/03/21 13:20:00;;;;;;;;;;;19.20;86.50;;;;;;5106702;28;20087;-77
2024/03/21 13:22:26;;;;;;;;;;;19.20;82.30;;;;;;5095791;27;19995;-78
2024/03/21 13:24:53;;;;;;;;;;;19.30;85.00;;;;;;5094554;27;20165;-77
2024/03/21 13:27:24;;;;;;;;;;;19.40;86.10;;;;;;5104826;27;19988;-77
2024/03/21 13:29:52;;;;;;;;;;;19.40;85.40;;;;;;5101820;28;20008;-77
2024/03/21 13:32:19;;;;;;;;;;;19.20;80.70;;;;;;5081342;28;20045;-77
2024/03/21 13:34:47;;;;;;;;;;;19.10;82.60;;;;;;5099683;28;19996;-77
2024/03/21 13:37:12;;;;;;;;;;;19.20;85.20;;;;;;5097885;28;20053;-78
2024/03/21 13:39:38;;;;;;;;;;;19.20;83.70;;;;;;5095188;28;20417;-77
2024/03/21 13:42:06;;;;;;;;;;;19.20;86.30;;;;;;5106542;27;19997;-77
2024/03/21 13:44:32;;;;;;;;;;;19.20;86.00;;;;;;5107659;27;20014;-77
2024/03/21 13:46:57;;;;;;;;;;;19.20;87.20;;;;;;5106166;28;20444;-77
2024/03/21 13:49:23;;;;;;;;;;;19.30;87.40;;;;;;5105859;28;20008;-78
2024/03/21 13:51:48;;;;;;;;;;;19.10;86.00;;;;;;5081025;28;20721;-77
2024/03/21 13:54:16;;;;;;;;;;;19.10;82.70;;;;;;5105713;28;20518;-77
2024/03/21 13:56:42;;;;;;;;;;;19.10;85.70;;;;;;5099651;28;20088;-78
2024/03/21 13:59:08;;;;;;;;;;;19.10;86.50;;;;;;5104411;28;19985;-77
2024/03/21 14:01:33;;;;;;;;;;;19.10;86.30;;;;;;5105396;28;20030;-77
2024/03/21 14:03:59;;;;;;;;;;;19.10;86.00;;;;;;5086675;28;19993;-77
2024/03/21 14:06:25;;;;;;;;;;;19.00;84.90;;;;;;5086801;28;20028;-77
2024/03/21 14:08:51;;;;;;;;;;;19.10;83.70;;;;;;5105793;28;20106;-77
2024/03/21 14:11:16;;;;;;;;;;;19.20;86.70;;;;;;5105663;28;19996;-77
2024/03/21 14:13:46;;;;;;;;;;;19.30;86.40;;;;;;5105789;28;19993;-78
2024/03/21 14:16:11;;;;;;;;;;;19.40;86.20;;;;;;5105727;28;19988;-78